Time;durP1;ratioP1;P1;durP2;ratioP2;P2;SDS_P1;SDS_P2;PMS_P1;PMS_P2;Temp;Humidity;BMP_temperature;BMP_pressure;BME280_temperature;BME280_humidity;BME280_pressure;Samples;Min_cycle;Max_cycle;Signal;HPM_P1;HPM_P2
2023/10/11 00:02:29;;;;;;;;;;;;;;;14.79;63.43;98341.28;5104856;27;19958;-64
2023/10/11 00:05:19;;;;;;;;;;;;;;;14.85;62.95;98339.97;5086752;28;19934;-64
2023/10/11 00:08:09;;;;;;;;;;;;;;;14.85;62.97;98339.19;5081359;28;19928;-64
2023/10/11 00:10:58;;;;;;;;;;;;;;;14.81;62.71;98338.25;5085533;28;19935;-64
2023/10/11 00:13:48;;;;;;;;;;;;;;;14.75;62.97;98342.28;5074021;28;19924;-64
2023/10/11 00:16:39;;;;;;;;;;;;;;;14.75;63.10;98332.13;5088101;28;19928;-64
2023/10/11 00:19:29;;;;;;;;;;;;;;;14.75;62.76;98339.53;5082667;28;20900;-63
2023/10/11 00:22:24;;;;;;;;;;;;;;;14.79;62.65;98343.22;5083114;28;20148;-64
2023/10/11 00:25:12;;;;;;;;;;;;;;;14.82;62.52;98331.66;5079304;28;19954;-63
2023/10/11 00:28:00;;;;;;;;;;;;;;;14.84;62.20;98337.56;5081458;28;19928;-64
2023/10/11 00:30:51;;;;;;;;;;;;;;;14.85;62.32;98331.78;5070633;28;20505;-64
2023/10/11 00:33:41;;;;;;;;;;;;;;;14.82;62.10;98326.97;5091038;28;19931;-63
2023/10/11 00:36:30;;;;;;;;;;;;;;;14.80;61.99;98322.94;5073430;28;19924;-63
2023/10/11 00:39:18;;;;;;;;;;;;;;;14.74;62.31;98310.59;5091165;28;19928;-63
2023/10/11 00:42:07;;;;;;;;;;;;;;;14.81;62.07;98305.44;5088125;28;19947;-63
2023/10/11 00:44:55;;;;;;;;;;;;;;;14.78;61.92;98312.34;5082775;28;19931;-64
2023/10/11 00:47:45;;;;;;;;;;;;;;;14.75;62.13;98320.38;5085630;28;19931;-64
2023/10/11 00:50:35;;;;;;;;;;;;;;;14.72;62.28;98318.34;5094890;28;19924;-63
2023/10/11 00:53:26;;;;;;;;;;;;;;;14.73;62.11;98317.19;5079979;28;20005;-63
2023/10/11 00:56:14;;;;;;;;;;;;;;;14.73;61.98;98309.00;5071721;28;20494;-64
2023/10/11 00:59:08;;;;;;;;;;;;;;;14.67;62.19;98298.22;5093911;28;19932;-63
2023/10/11 01:02:01;;;;;;;;;;;;;;;14.63;62.37;98310.16;5077908;28;19924;-64
2023/10/11 01:04:49;;;;;;;;;;;;;;;14.61;62.39;98312.44;5112491;27;19931;-64
2023/10/11 01:07:38;;;;;;;;;;;;;;;14.37;63.28;98296.53;5094545;28;19924;-64
2023/10/11 01:10:29;;;;;;;;;;;;;;;14.36;63.23;98305.88;5124381;27;19928;-64
2023/10/11 01:13:18;;;;;;;;;;;;;;;14.39;63.36;98302.50;5099509;27;19998;-63
2023/10/11 01:16:09;;;;;;;;;;;;;;;14.39;63.40;98297.84;5091066;27;19928;-63
2023/10/11 01:18:58;;;;;;;;;;;;;;;14.38;63.36;98303.59;5107436;27;19939;-64
2023/10/11 01:21:51;;;;;;;;;;;;;;;14.39;63.47;98294.31;5103478;28;19938;-63
2023/10/11 01:24:41;;;;;;;;;;;;;;;14.41;63.42;98300.22;5097201;27;19924;-64
2023/10/11 01:27:31;;;;;;;;;;;;;;;14.38;63.13;98304.44;5098724;27;19945;-64
2023/10/11 01:30:19;;;;;;;;;;;;;;;14.41;63.08;98301.03;5114236;27;20409;-64
2023/10/11 01:33:08;;;;;;;;;;;;;;;14.40;63.41;98310.38;5112459;27;19938;-64
2023/10/11 01:35:56;;;;;;;;;;;;;;;14.43;63.28;98300.69;5103080;27;19935;-64
2023/10/11 01:38:48;;;;;;;;;;;;;;;14.41;63.28;98308.44;5104489;27;20010;-64
2023/10/11 01:41:42;;;;;;;;;;;;;;;14.39;63.10;98306.03;5110413;27;19976;-64
2023/10/11 01:44:31;;;;;;;;;;;;;;;14.38;63.31;98309.91;5109463;27;19984;-64
2023/10/11 01:47:20;;;;;;;;;;;;;;;14.37;63.27;98313.75;5112289;27;19924;-63
2023/10/11 01:50:08;;;;;;;;;;;;;;;14.32;63.58;98300.25;5117089;27;19924;-64
2023/10/11 01:52:57;;;;;;;;;;;;;;;14.16;63.95;98297.25;5111649;27;19934;-64
2023/10/11 01:55:49;;;;;;;;;;;;;;;14.10;64.31;98293.06;5112926;27;19923;-64
2023/10/11 01:58:37;;;;;;;;;;;;;;;14.14;63.99;98294.03;5102492;27;19932;-64
2023/10/11 02:01:28;;;;;;;;;;;;;;;14.16;63.77;98286.31;5107817;27;20380;-64
2023/10/11 02:04:17;;;;;;;;;;;;;;;14.19;63.67;98284.06;5093114;28;19927;-64
2023/10/11 02:07:07;;;;;;;;;;;;;;;14.23;63.50;98282.28;5082069;28;20010;-63
2023/10/11 02:09:55;;;;;;;;;;;;;;;14.20;63.54;98272.00;5088883;28;19924;-64
2023/10/11 02:12:45;;;;;;;;;;;;;;;14.24;63.61;98281.16;5074513;28;19928;-63
2023/10/11 02:15:34;;;;;;;;;;;;;;;14.27;63.63;98281.28;5112610;27;19932;-63
2023/10/11 02:18:22;;;;;;;;;;;;;;;14.26;63.81;98273.44;5093429;28;20010;-64
2023/10/11 02:21:10;;;;;;;;;;;;;;;14.26;63.59;98273.44;5089365;28;20019;-64
2023/10/11 02:23:59;;;;;;;;;;;;;;;14.25;63.65;98277.28;5093103;28;20301;-64
2023/10/11 02:26:49;;;;;;;;;;;;;;;14.25;63.93;98266.38;5084628;28;19934;-64
2023/10/11 02:29:41;;;;;;;;;;;;;;;14.24;63.69;98271.03;5083590;28;19931;-63
2023/10/11 02:32:33;;;;;;;;;;;;;;;14.27;63.89;98264.91;5097389;28;19924;-64
2023/10/11 02:35:26;;;;;;;;;;;;;;;14.27;63.86;98275.03;5114718;27;19928;-63
2023/10/11 02:38:21;;;;;;;;;;;;;;;14.30;64.02;98271.66;5076443;28;19931;-63
2023/10/11 02:41:09;;;;;;;;;;;;;;;14.27;64.25;98273.09;5088852;28;20008;-63
2023/10/11 02:43:57;;;;;;;;;;;;;;;14.10;64.89;98270.41;5112845;27;20404;-64
2023/10/11 02:46:49;;;;;;;;;;;;;;;14.10;64.73;98273.16;5088405;28;20060;-64
2023/10/11 02:49:37;;;;;;;;;;;;;;;14.09;64.78;98269.63;5097647;28;19928;-63
2023/10/11 02:52:35;;;;;;;;;;;;;;;14.13;64.71;98281.50;5089832;28;19928;-63
2023/10/11 02:55:23;;;;;;;;;;;;;;;14.18;64.58;98274.28;5101621;28;20008;-64
2023/10/11 02:58:21;;;;;;;;;;;;;;;14.19;64.58;98273.13;5095662;28;19927;-64
2023/10/11 03:01:14;;;;;;;;;;;;;;;14.06;64.99;98273.03;5100357;28;19976;-64
2023/10/11 03:04:15;;;;;;;;;;;;;;;14.08;64.92;98276.22;5093989;28;20438;-64
2023/10/11 03:07:04;;;;;;;;;;;;;;;14.10;64.77;98279.41;5086500;28;19925;-64
2023/10/11 03:09:53;;;;;;;;;;;;;;;14.07;64.62;98274.63;5083151;28;20393;-64
2023/10/11 03:12:42;;;;;;;;;;;;;;;14.08;64.81;98272.69;5074734;28;20027;-63
2023/10/11 03:15:31;;;;;;;;;;;;;;;14.03;64.79;98265.47;5078226;28;20374;-63
2023/10/11 03:18:19;;;;;;;;;;;;;;;14.05;64.70;98263.19;5084245;28;20369;-64
2023/10/11 03:21:17;;;;;;;;;;;;;;;14.09;64.75;98264.16;5076825;28;19932;-63
2023/10/11 03:24:06;;;;;;;;;;;;;;;14.10;64.68;98262.22;5092700;28;19924;-63
2023/10/11 03:27:00;;;;;;;;;;;;;;;14.10;64.86;98263.03;5084018;28;19935;-63
2023/10/11 03:29:48;;;;;;;;;;;;;;;14.07;65.16;98263.69;5088458;28;19924;-68
2023/10/11 03:32:38;;;;;;;;;;;;;;;14.09;65.20;98264.16;5081773;28;20382;-64
2023/10/11 03:35:26;;;;;;;;;;;;;;;14.05;65.20;98260.47;5080544;28;20018;-68
2023/10/11 03:38:19;;;;;;;;;;;;;;;14.05;65.48;98252.25;5086873;28;20012;-63
2023/10/11 03:41:14;;;;;;;;;;;;;;;14.04;65.68;98253.41;5089226;28;19924;-64
2023/10/11 03:44:09;;;;;;;;;;;;;;;14.04;65.83;98245.22;5081095;28;19970;-64
2023/10/11 03:46:58;;;;;;;;;;;;;;;14.05;65.63;98241.34;5087367;28;19942;-64
2023/10/11 03:49:51;;;;;;;;;;;;;;;14.01;65.77;98243.13;5094984;28;19924;-64
2023/10/11 03:52:40;;;;;;;;;;;;;;;14.00;65.79;98244.25;5089761;28;19959;-63
2023/10/11 03:55:31;;;;;;;;;;;;;;;13.97;66.19;98250.38;5086255;28;20579;-63
2023/10/11 03:58:37;;;;;;;;;;;;;;;13.90;66.18;98241.84;5093272;28;20050;-63
2023/10/11 04:01:28;;;;;;;;;;;;;;;13.88;66.36;98246.84;5092087;28;20403;-63
2023/10/11 04:04:16;;;;;;;;;;;;;;;13.90;66.18;98239.13;5103820;27;19924;-63
2023/10/11 04:07:05;;;;;;;;;;;;;;;13.93;66.29;98243.94;5111228;27;19927;-63
2023/10/11 04:09:53;;;;;;;;;;;;;;;13.95;66.41;98241.69;5111421;27;19923;-64
2023/10/11 04:12:42;;;;;;;;;;;;;;;13.98;66.29;98246.50;5110319;27;20026;-63
2023/10/11 04:15:30;;;;;;;;;;;;;;;13.99;66.41;98237.19;5110438;27;19928;-64
2023/10/11 04:18:33;;;;;;;;;;;;;;;13.89;66.70;98237.53;5097843;27;20317;-64
2023/10/11 04:21:38;;;;;;;;;;;;;;;13.93;66.67;98235.75;5109392;27;19931;-64
2023/10/11 04:24:27;;;;;;;;;;;;;;;13.95;66.40;98236.22;5099810;28;19927;-64
2023/10/11 04:30:27;;;;;;;;;;;;;;;13.97;66.25;98242.19;5099445;28;19924;-63
2023/10/11 04:33:20;;;;;;;;;;;;;;;13.94;66.74;98237.34;5102153;28;19967;-63
2023/10/11 04:36:08;;;;;;;;;;;;;;;13.95;66.46;98236.22;5105858;28;19928;-64
2023/10/11 04:39:03;;;;;;;;;;;;;;;13.98;66.50;98241.03;5099630;28;20437;-64
2023/10/11 04:41:57;;;;;;;;;;;;;;;13.99;66.37;98237.19;5114369;28;19947;-63
2023/10/11 04:44:54;;;;;;;;;;;;;;;14.00;66.32;98252.44;5087168;28;20076;-63
2023/10/11 04:47:52;;;;;;;;;;;;;;;13.98;66.06;98249.25;5104946;28;19945;-63
2023/10/11 04:50:47;;;;;;;;;;;;;;;13.98;66.29;98246.50;5093419;28;20081;-63
2023/10/11 04:53:47;;;;;;;;;;;;;;;13.95;66.33;98252.63;5094131;28;19928;-64
2023/10/11 04:56:55;;;;;;;;;;;;;;;13.91;66.45;98251.69;5102964;28;19956;-64
2023/10/11 04:59:46;;;;;;;;;;;;;;;13.81;66.77;98249.28;5098990;28;19942;-64
2023/10/11 05:02:36;;;;;;;;;;;;;;;13.82;66.55;98246.22;5101837;28;19927;-63
2023/10/11 05:05:27;;;;;;;;;;;;;;;13.84;66.56;98252.16;5101695;28;19932;-63
2023/10/11 05:08:21;;;;;;;;;;;;;;;13.85;66.49;98247.53;5105241;28;20049;-63
2023/10/11 05:11:18;;;;;;;;;;;;;;;13.87;66.30;98247.97;5100450;28;19928;-63
2023/10/11 05:14:10;;;;;;;;;;;;;;;13.88;66.29;98253.13;5106987;28;19924;-63
2023/10/11 05:17:16;;;;;;;;;;;;;;;13.89;66.52;98254.72;5106445;28;19928;-63
2023/10/11 05:23:13;;;;;;;;;;;;;;;13.89;66.53;98248.44;5082033;28;19932;-63
2023/10/11 05:26:34;;;;;;;;;;;;;;;13.95;66.37;98244.41;5101744;28;19928;-63
2023/10/11 05:29:24;;;;;;;;;;;;;;;13.91;66.14;98251.69;5111714;28;19923;-64
2023/10/11 05:32:23;;;;;;;;;;;;;;;13.89;66.39;98240.25;5103234;28;19935;-64
2023/10/11 05:35:25;;;;;;;;;;;;;;;13.89;66.50;98241.06;5105933;28;19924;-64
2023/10/11 05:50:54;;;;;;;;;;;;;;;13.94;66.31;98266.59;5097928;27;19931;-63
2023/10/11 05:53:46;;;;;;;;;;;;;;;13.93;66.04;98251.34;5099679;28;19931;-64
2023/10/11 05:56:34;;;;;;;;;;;;;;;13.94;66.22;98261.94;5110236;28;19924;-63
2023/10/11 05:59:23;;;;;;;;;;;;;;;13.92;66.13;98257.94;5102628;27;19924;-63
2023/10/11 06:02:14;;;;;;;;;;;;;;;13.91;66.38;98257.13;5102511;27;20008;-66
2023/10/11 06:05:03;;;;;;;;;;;;;;;13.89;66.37;98254.72;5098441;28;19928;-65
2023/10/11 06:08:03;;;;;;;;;;;;;;;13.91;66.52;98259.88;5105542;27;19924;-65
2023/10/11 06:10:56;;;;;;;;;;;;;;;13.94;66.52;98253.75;5095688;27;19924;-65
2023/10/11 06:13:44;;;;;;;;;;;;;;;13.95;66.69;98249.88;5100476;28;19923;-65
2023/10/11 06:16:37;;;;;;;;;;;;;;;13.97;66.62;98250.38;5083905;28;20440;-65
2023/10/11 06:19:27;;;;;;;;;;;;;;;13.98;66.90;98256.63;5105179;28;19934;-66
2023/10/11 06:22:16;;;;;;;;;;;;;;;13.88;66.94;98258.56;5101543;27;19967;-65
2023/10/11 06:25:07;;;;;;;;;;;;;;;13.92;66.80;98255.22;5107849;27;19934;-65
2023/10/11 06:28:13;;;;;;;;;;;;;;;13.96;66.78;98256.97;5115718;27;19927;-65
2023/10/11 06:31:02;;;;;;;;;;;;;;;13.88;66.63;98247.66;5110829;27;19932;-65
2023/10/11 06:33:52;;;;;;;;;;;;;;;14.00;66.49;98260.63;5114556;27;20341;-65
2023/10/11 06:36:40;;;;;;;;;;;;;;;14.02;66.64;98261.13;5109490;27;20017;-65
2023/10/11 06:40:07;;;;;;;;;;;;;;;14.02;66.55;98263.06;5105002;28;19931;-66
2023/10/11 06:42:42;;;;;;;;;;;;;;;14.04;66.39;98261.59;5108647;28;19924;-65
2023/10/11 06:45:32;;;;;;;;;;;;;;;14.06;66.51;98267.56;5106102;28;19924;-65
2023/10/11 06:48:22;;;;;;;;;;;;;;;14.10;66.38;98265.75;5100769;27;19927;-65
2023/10/11 06:51:13;;;;;;;;;;;;;;;14.10;66.37;98260.28;5108497;27;19953;-65
2023/10/11 06:54:01;;;;;;;;;;;;;;;14.11;66.75;98270.13;5102865;27;19923;-66
2023/10/11 06:56:50;;;;;;;;;;;;;;;14.10;66.85;98264.97;5108343;27;19928;-65
2023/10/11 06:59:41;;;;;;;;;;;;;;;14.14;66.65;98274.91;5105288;28;19924;-65
2023/10/11 07:02:34;;;;;;;;;;;;;;;14.15;67.00;98268.31;5113507;27;20205;-65
2023/10/11 07:05:25;;;;;;;;;;;;;;;14.24;66.87;98267.50;5069569;28;19924;-65
2023/10/11 07:08:17;;;;;;;;;;;;;;;14.27;66.63;98259.44;5071905;28;19925;-65
2023/10/11 07:11:16;;;;;;;;;;;;;;;14.30;66.64;98263.47;5069380;28;20054;-66
2023/10/11 07:14:14;;;;;;;;;;;;;;;14.30;66.37;98274.38;5057802;28;20015;-65
2023/10/11 07:17:08;;;;;;;;;;;;;;;14.34;66.39;98269.88;5073903;28;21531;-64
2023/10/11 07:19:58;;;;;;;;;;;;;;;14.37;66.72;98266.47;5070997;28;19924;-63
2023/10/11 07:22:46;;;;;;;;;;;;;;;14.41;66.44;98268.22;5068559;28;19981;-63
2023/10/11 07:25:45;;;;;;;;;;;;;;;14.44;66.70;98266.00;5056767;28;19953;-63
2023/10/11 07:28:36;;;;;;;;;;;;;;;14.48;66.92;98265.00;5058610;28;20264;-63
2023/10/11 07:31:31;;;;;;;;;;;;;;;14.55;66.85;98264.53;5067795;28;19946;-64
2023/10/11 07:34:25;;;;;;;;;;;;;;;14.62;66.45;98260.13;5068795;28;19935;-64
2023/10/11 07:37:18;;;;;;;;;;;;;;;14.67;66.25;98267.34;5065504;28;20416;-64
2023/10/11 07:40:09;;;;;;;;;;;;;;;14.75;66.23;98258.28;5078965;28;19954;-64
2023/10/11 07:42:57;;;;;;;;;;;;;;;14.82;66.26;98264.06;5062885;28;20445;-64
2023/10/11 07:45:47;;;;;;;;;;;;;;;14.89;66.29;98264.34;5063142;28;19987;-64
2023/10/11 07:48:35;;;;;;;;;;;;;;;14.98;66.37;98268.97;5063767;28;20070;-64
2023/10/11 07:51:25;;;;;;;;;;;;;;;15.02;66.65;98267.16;5065691;28;19931;-64
2023/10/11 07:54:19;;;;;;;;;;;;;;;15.09;66.56;98272.91;5074488;28;19924;-64
2023/10/11 07:57:13;;;;;;;;;;;;;;;15.16;66.28;98282.19;5063136;28;20479;-64
2023/10/11 08:00:02;;;;;;;;;;;;;;;15.23;66.16;98269.91;5064944;28;19925;-64
2023/10/11 08:03:03;;;;;;;;;;;;;;;15.28;65.76;98265.03;5067443;28;19925;-64
2023/10/11 08:05:54;;;;;;;;;;;;;;;15.32;65.66;98268.72;5104470;27;19963;-65
2023/10/11 08:08:43;;;;;;;;;;;;;;;15.38;65.23;98275.59;5108346;27;20304;-64
2023/10/11 08:11:37;;;;;;;;;;;;;;;15.44;65.00;98267.97;5101380;27;19976;-64
2023/10/11 08:14:28;;;;;;;;;;;;;;;15.49;64.34;98266.97;5103576;27;20061;-65
2023/10/11 08:17:17;;;;;;;;;;;;;;;15.57;64.42;98271.59;5112693;27;19963;-64
2023/10/11 08:20:15;;;;;;;;;;;;;;;15.63;64.30;98262.06;5098073;28;19924;-64
2023/10/11 08:23:08;;;;;;;;;;;;;;;15.66;63.89;98273.16;5096775;28;19930;-64
2023/10/11 08:25:56;;;;;;;;;;;;;;;15.71;63.72;98272.94;5104182;28;20058;-64
2023/10/11 08:28:48;;;;;;;;;;;;;;;15.81;63.60;98268.16;5103382;28;19930;-64
2023/10/11 08:31:39;;;;;;;;;;;;;;;15.87;63.36;98266.81;5101079;28;19928;-65
2023/10/11 08:34:29;;;;;;;;;;;;;;;15.94;63.06;98256.94;5108398;28;19928;-65
2023/10/11 08:37:25;;;;;;;;;;;;;;;16.00;61.92;98257.53;5104673;28;19924;-64
2023/10/11 08:40:22;;;;;;;;;;;;;;;16.03;61.63;98259.56;5106353;28;19924;-65
2023/10/11 08:43:11;;;;;;;;;;;;;;;16.09;61.07;98250.00;5106686;28;19924;-67
2023/10/11 08:46:01;;;;;;;;;;;;;;;16.13;60.35;98248.16;5102914;28;19923;-65
2023/10/11 08:48:50;;;;;;;;;;;;;;;16.21;60.12;98255.50;5109125;28;19951;-65
2023/10/11 08:51:40;;;;;;;;;;;;;;;16.30;60.51;98254.59;5095552;28;19963;-65
2023/10/11 08:54:30;;;;;;;;;;;;;;;16.35;59.80;98257.94;5094591;28;19928;-65
2023/10/11 08:57:23;;;;;;;;;;;;;;;16.42;59.20;98252.69;5107614;28;19980;-65
2023/10/11 09:00:25;;;;;;;;;;;;;;;16.48;59.88;98250.53;5106715;28;20014;-65
2023/10/11 09:03:20;;;;;;;;;;;;;;;16.55;58.92;98248.00;5097347;28;19973;-65
2023/10/11 09:06:20;;;;;;;;;;;;;;;16.61;58.51;98243.88;5106656;28;19964;-66
2023/10/11 09:09:14;;;;;;;;;;;;;;;16.69;58.82;98245.72;5106829;28;20097;-65
2023/10/11 09:12:22;;;;;;;;;;;;;;;16.76;58.61;98232.25;5092960;28;19942;-65
2023/10/11 09:15:14;;;;;;;;;;;;;;;16.82;58.58;98232.81;5100684;28;20399;-65
2023/10/11 09:18:15;;;;;;;;;;;;;;;16.89;58.63;98233.06;5106075;28;19932;-65
2023/10/11 09:21:15;;;;;;;;;;;;;;;16.98;57.91;98224.69;5103179;28;19931;-64
2023/10/11 09:24:04;;;;;;;;;;;;;;;17.06;58.25;98231.22;5111299;28;20009;-65
2023/10/11 09:27:18;;;;;;;;;;;;;;;17.13;57.45;98239.66;5106972;28;20506;-65
2023/10/11 09:30:19;;;;;;;;;;;;;;;17.20;57.72;98232.41;5103733;28;19924;-64
2023/10/11 09:33:16;;;;;;;;;;;;;;;17.24;57.98;98238.03;5102731;27;19928;-65
2023/10/11 09:36:06;;;;;;;;;;;;;;;17.30;58.08;98242.13;5104877;27;19923;-65
2023/10/11 09:38:55;;;;;;;;;;;;;;;17.36;57.22;98242.69;5104736;27;19934;-64
2023/10/11 09:41:44;;;;;;;;;;;;;;;17.45;57.54;98240.59;5099576;28;20327;-64
2023/10/11 09:44:35;;;;;;;;;;;;;;;17.52;56.99;98240.78;5105524;27;20341;-65
2023/10/11 09:47:23;;;;;;;;;;;;;;;17.59;57.07;98248.47;5109673;28;19985;-64
2023/10/11 09:50:15;;;;;;;;;;;;;;;17.64;57.57;98240.75;5109941;28;19931;-65
2023/10/11 09:53:07;;;;;;;;;;;;;;;17.67;57.09;98237.31;5096790;27;19993;-65
2023/10/11 09:56:00;;;;;;;;;;;;;;;17.71;56.99;98234.66;5108194;28;19932;-65
2023/10/11 09:58:53;;;;;;;;;;;;;;;17.78;57.20;98232.94;5096589;28;19931;-65
2023/10/11 10:01:42;;;;;;;;;;;;;;;17.86;56.01;98225.69;5106292;28;20524;-66
2023/10/11 10:04:49;;;;;;;;;;;;;;;17.93;56.17;98225.06;5100114;27;19976;-66
2023/10/11 10:07:44;;;;;;;;;;;;;;;18.05;56.39;98214.00;5111350;28;20000;-66
2023/10/11 10:10:36;;;;;;;;;;;;;;;18.14;56.56;98217.41;5108252;28;20010;-66
2023/10/11 10:13:25;;;;;;;;;;;;;;;18.24;55.95;98224.31;5109045;28;19930;-66
2023/10/11 10:16:14;;;;;;;;;;;;;;;18.32;55.48;98221.41;5112352;27;20001;-67
2023/10/11 10:19:17;;;;;;;;;;;;;;;18.41;55.54;98217.66;5119278;27;19924;-66
2023/10/11 10:22:11;;;;;;;;;;;;;;;18.44;55.45;98214.22;5101230;27;19939;-66
2023/10/11 10:25:18;;;;;;;;;;;;;;;18.59;55.84;98227.97;5114487;27;19930;-66
2023/10/11 10:28:11;;;;;;;;;;;;;;;18.65;55.24;98220.25;5115672;27;20002;-65
2023/10/11 10:31:09;;;;;;;;;;;;;;;18.70;55.31;98224.72;5095053;28;19925;-67
2023/10/11 10:34:16;;;;;;;;;;;;;;;18.77;55.17;98231.16;5105762;27;19938;-66
2023/10/11 10:37:08;;;;;;;;;;;;;;;18.86;54.65;98213.69;5099649;28;19932;-67
2023/10/11 10:40:11;;;;;;;;;;;;;;;18.91;53.84;98214.19;5105468;28;20393;-66
2023/10/11 10:43:22;;;;;;;;;;;;;;;18.91;53.81;98202.34;5104461;27;19973;-67
2023/10/11 10:46:11;;;;;;;;;;;;;;;18.94;54.54;98204.41;5099258;28;19931;-66
2023/10/11 10:49:01;;;;;;;;;;;;;;;19.02;53.95;98197.91;5098477;28;19930;-66
2023/10/11 10:51:48;;;;;;;;;;;;;;;19.13;53.71;98206.41;5102917;28;20549;-66
2023/10/11 10:54:37;;;;;;;;;;;;;;;19.25;52.84;98200.75;5106205;28;20006;-66
2023/10/11 10:57:24;;;;;;;;;;;;;;;19.23;52.56;98198.38;5109526;28;20491;-67
2023/10/11 11:00:23;;;;;;;;;;;;;;;19.30;52.42;98195.75;5108049;28;19942;-66
2023/10/11 11:03:19;;;;;;;;;;;;;;;19.40;52.19;98190.84;5101992;28;20385;-66
2023/10/11 11:06:11;;;;;;;;;;;;;;;19.48;51.53;98182.34;5109584;28;19931;-66
2023/10/11 11:09:00;;;;;;;;;;;;;;;19.50;51.83;98169.00;5106410;28;20300;-66
2023/10/11 11:11:49;;;;;;;;;;;;;;;19.56;51.36;98173.06;5104539;28;19959;-67
2023/10/11 11:14:37;;;;;;;;;;;;;;;19.54;52.05;98169.06;5102348;28;19988;-66
2023/10/11 11:17:26;;;;;;;;;;;;;;;19.59;52.43;98174.31;5100921;28;19923;-66
2023/10/11 11:20:27;;;;;;;;;;;;;;;19.58;52.13;98164.41;5101699;27;19928;-67
2023/10/11 11:23:23;;;;;;;;;;;;;;;19.60;52.55;98159.34;5105377;27;20060;-65
2023/10/11 11:26:15;;;;;;;;;;;;;;;19.68;51.51;98158.34;5100187;28;19931;-67
2023/10/11 11:29:31;;;;;;;;;;;;;;;19.87;49.33;98150.03;5102793;28;19931;-67
2023/10/11 11:32:23;;;;;;;;;;;;;;;19.90;49.37;98154.00;5098778;28;19932;-67
2023/10/11 11:35:10;;;;;;;;;;;;;;;20.13;47.10;98134.69;5110998;27;19923;-66
2023/10/11 11:38:02;;;;;;;;;;;;;;;20.44;45.24;98139.13;5109260;27;19971;-66
2023/10/11 11:40:51;;;;;;;;;;;;;;;20.54;45.78;98133.03;5104496;28;19931;-67
2023/10/11 11:43:40;;;;;;;;;;;;;;;20.57;46.32;98134.25;5107817;28;19923;-66
2023/10/11 11:46:29;;;;;;;;;;;;;;;20.65;45.32;98122.94;5097389;28;19924;-66
2023/10/11 11:49:20;;;;;;;;;;;;;;;20.70;45.20;98112.75;5102361;28;20015;-66
2023/10/11 11:52:08;;;;;;;;;;;;;;;20.86;44.71;98116.13;5100720;28;19924;-66
2023/10/11 11:54:57;;;;;;;;;;;;;;;20.91;44.74;98108.28;5097810;28;19928;-67
2023/10/11 11:57:47;;;;;;;;;;;;;;;20.91;44.60;98108.28;5101054;28;20505;-67
2023/10/11 12:00:45;;;;;;;;;;;;;;;20.91;46.08;98101.97;5098919;28;19924;-67
2023/10/11 12:03:36;;;;;;;;;;;;;;;20.93;45.29;98103.22;5104450;28;20447;-66
2023/10/11 12:06:26;;;;;;;;;;;;;;;21.07;43.55;98107.31;5103110;28;20068;-67
2023/10/11 12:09:20;;;;;;;;;;;;;;;21.12;44.06;98091.19;5107122;28;19936;-66
2023/10/11 12:12:10;;;;;;;;;;;;;;;21.08;44.33;98098.63;5099757;28;20525;-66
2023/10/11 12:14:59;;;;;;;;;;;;;;;21.24;41.81;98103.97;5098104;27;19924;-65
2023/10/11 12:17:48;;;;;;;;;;;;;;;21.29;42.89;98095.34;5102438;27;20061;-66
2023/10/11 12:20:36;;;;;;;;;;;;;;;21.46;41.62;98093.97;5105724;28;20333;-68
2023/10/11 12:23:24;;;;;;;;;;;;;;;21.53;40.82;98087.72;5107639;27;20496;-67
2023/10/11 12:26:12;;;;;;;;;;;;;;;21.57;40.81;98094.91;5103768;27;19935;-67
2023/10/11 12:29:04;;;;;;;;;;;;;;;21.64;40.23;98094.16;5108336;27;20031;-68
2023/10/11 12:31:56;;;;;;;;;;;;;;;21.72;40.42;98093.03;5107515;27;19924;-67
2023/10/11 12:34:44;;;;;;;;;;;;;;;21.79;40.50;98095.09;5104267;27;19992;-67
2023/10/11 12:37:32;;;;;;;;;;;;;;;21.83;40.43;98096.69;5108090;28;20324;-66
2023/10/11 12:40:23;;;;;;;;;;;;;;;21.94;40.14;98086.56;5102717;28;20377;-66
2023/10/11 12:43:11;;;;;;;;;;;;;;;21.93;40.24;98084.16;5095933;28;19931;-66
2023/10/11 12:46:04;;;;;;;;;;;;;;;22.03;39.92;98088.97;5103935;28;19924;-66
2023/10/11 12:48:56;;;;;;;;;;;;;;;21.91;41.92;98079.00;5096961;28;19971;-66
2023/10/11 12:51:45;;;;;;;;;;;;;;;21.80;41.27;98080.09;5099874;28;19924;-66
2023/10/11 12:54:33;;;;;;;;;;;;;;;21.94;39.76;98075.50;5096194;28;20014;-66
2023/10/11 12:57:27;;;;;;;;;;;;;;;21.98;39.87;98075.50;5104003;28;19924;-66
2023/10/11 13:00:28;;;;;;;;;;;;;;;21.96;39.65;98070.34;5106888;27;20403;-66
2023/10/11 13:03:25;;;;;;;;;;;;;;;22.05;39.63;98075.56;5103824;28;19938;-65
2023/10/11 13:06:14;;;;;;;;;;;;;;;22.23;39.14;98078.50;5103889;28;19931;-66
2023/10/11 13:09:03;;;;;;;;;;;;;;;22.22;39.02;98077.69;5107418;28;20373;-66
2023/10/11 13:11:56;;;;;;;;;;;;;;;22.25;39.12;98070.59;5110182;28;19935;-65
2023/10/11 13:14:44;;;;;;;;;;;;;;;22.20;40.18;98065.41;5103175;28;20047;-65
2023/10/11 13:17:35;;;;;;;;;;;;;;;22.24;39.08;98071.78;5107984;28;19945;-66
2023/10/11 13:20:31;;;;;;;;;;;;;;;22.24;38.65;98066.25;5116304;27;19939;-66
2023/10/11 13:23:28;;;;;;;;;;;;;;;22.28;38.51;98061.53;5111000;28;19930;-66
2023/10/11 13:26:19;;;;;;;;;;;;;;;22.33;38.15;98063.94;5101695;28;19930;-66
2023/10/11 13:29:07;;;;;;;;;;;;;;;22.34;39.26;98064.72;5099080;27;19928;-66
2023/10/11 13:31:56;;;;;;;;;;;;;;;22.36;38.70;98068.69;5106609;27;20057;-66
2023/10/11 13:34:46;;;;;;;;;;;;;;;22.39;38.53;98067.13;5102692;28;19928;-65
2023/10/11 13:37:35;;;;;;;;;;;;;;;22.42;38.70;98058.03;5101472;28;20049;-66
2023/10/11 13:40:25;;;;;;;;;;;;;;;22.38;40.13;98060.81;5100896;28;19927;-65
2023/10/11 13:43:16;;;;;;;;;;;;;;;22.20;40.16;98057.13;5099899;27;19944;-65
2023/10/11 13:46:06;;;;;;;;;;;;;;;22.22;39.40;98057.53;5102825;28;19973;-66
2023/10/11 13:49:05;;;;;;;;;;;;;;;22.20;40.25;98048.81;5107300;28;19924;-66
2023/10/11 13:51:54;;;;;;;;;;;;;;;22.19;39.91;98055.53;5099126;28;19992;-66
2023/10/11 13:54:49;;;;;;;;;;;;;;;22.16;40.97;98048.81;5101866;28;19932;-65
2023/10/11 13:57:37;;;;;;;;;;;;;;;22.17;38.86;98047.63;5100361;28;19932;-66
2023/10/11 14:03:49;;;;;;;;;;;;;;;22.45;37.68;98049.78;5094148;28;20057;-66
2023/10/11 14:06:59;;;;;;;;;;;;;;;22.49;37.18;98041.50;5104641;28;19924;-66
2023/10/11 14:09:53;;;;;;;;;;;;;;;22.47;37.98;98043.84;5106233;28;19939;-66
2023/10/11 14:12:43;;;;;;;;;;;;;;;22.52;37.47;98034.38;5103495;27;19923;-65
2023/10/11 14:15:32;;;;;;;;;;;;;;;22.51;37.26;98024.50;5098180;28;20466;-66
2023/10/11 14:18:21;;;;;;;;;;;;;;;22.47;39.08;98024.47;5110193;27;19923;-66
2023/10/11 14:21:12;;;;;;;;;;;;;;;22.46;36.97;98029.19;5103328;28;19939;-66
2023/10/11 14:24:00;;;;;;;;;;;;;;;22.56;36.34;98027.69;5107117;28;19923;-66
2023/10/11 14:26:50;;;;;;;;;;;;;;;22.57;35.91;98026.50;5097662;27;20573;-66
2023/10/11 14:29:38;;;;;;;;;;;;;;;22.62;36.36;98025.34;5107387;28;20006;-65
2023/10/11 14:32:27;;;;;;;;;;;;;;;22.48;36.85;98020.53;5106951;28;19943;-65
2023/10/11 14:35:15;;;;;;;;;;;;;;;22.50;36.34;98026.47;5099089;27;19931;-66
2023/10/11 14:38:03;;;;;;;;;;;;;;;22.53;37.24;98027.66;5098857;27;19989;-66
2023/10/11 14:40:51;;;;;;;;;;;;;;;22.52;38.77;98026.06;5101522;27;19960;-66
2023/10/11 14:43:41;;;;;;;;;;;;;;;22.52;37.86;98021.31;5100754;28;19925;-66
2023/10/11 14:46:29;;;;;;;;;;;;;;;22.56;37.63;98024.13;5104774;28;20503;-66
2023/10/11 14:49:21;;;;;;;;;;;;;;;22.58;37.49;98018.97;5108021;28;20452;-65
2023/10/11 14:52:09;;;;;;;;;;;;;;;22.52;37.52;98015.00;5109389;28;19923;-66
2023/10/11 14:54:59;;;;;;;;;;;;;;;22.51;37.40;98019.75;5103267;28;19946;-66
2023/10/11 14:57:49;;;;;;;;;;;;;;;22.55;37.33;98025.31;5109401;28;20309;-66
2023/10/11 15:00:43;;;;;;;;;;;;;;;22.56;37.21;98021.34;5098447;28;19927;-66
2023/10/11 15:03:35;;;;;;;;;;;;;;;22.45;39.23;98019.31;5108487;28;19924;-66
2023/10/11 15:06:25;;;;;;;;;;;;;;;22.40;36.84;98014.16;5107201;28;19927;-66
2023/10/11 15:09:13;;;;;;;;;;;;;;;22.38;39.45;98018.50;5096256;28;19928;-66
2023/10/11 15:12:03;;;;;;;;;;;;;;;22.32;37.80;98017.25;5108836;28;19927;-66
2023/10/11 15:14:51;;;;;;;;;;;;;;;22.32;38.27;98020.84;5104936;28;20469;-66
2023/10/11 15:17:44;;;;;;;;;;;;;;;22.34;37.71;98012.94;5103232;28;19931;-66
2023/10/11 15:20:35;;;;;;;;;;;;;;;22.31;38.33;98016.47;5102800;28;19931;-66